sensor_id;sensor_type;location;lat;lon;timestamp;temperature;humidity
1129;DHT22;553;51.038;7.216;2023-05-16T00:01:20;12.70;99.90
1129;DHT22;553;51.038;7.216;2023-05-16T00:03:47;12.60;99.90
1129;DHT22;553;51.038;7.216;2023-05-16T00:06:14;12.60;99.90
1129;DHT22;553;51.038;7.216;2023-05-16T00:08:41;12.60;99.90
1129;DHT22;553;51.038;7.216;2023-05-16T00:11:07;12.60;99.90
1129;DHT22;553;51.038;7.216;2023-05-16T00:13:34;12.50;99.90
1129;DHT22;553;51.038;7.216;2023-05-16T00:16:01;12.50;99.90
1129;DHT22;553;51.038;7.216;2023-05-16T00:18:28;12.40;99.90
1129;DHT22;553;51.038;7.216;2023-05-16T00:20:54;12.40;99.90
1129;DHT22;553;51.038;7.216;2023-05-16T00:23:22;12.30;99.90
1129;DHT22;553;51.038;7.216;2023-05-16T00:25:48;12.20;99.90
1129;DHT22;553;51.038;7.216;2023-05-16T00:28:15;12.30;99.90
1129;DHT22;553;51.038;7.216;2023-05-16T00:30:42;12.20;99.90
1129;DHT22;553;51.038;7.216;2023-05-16T00:33:08;12.10;99.90
1129;DHT22;553;51.038;7.216;2023-05-16T00:35:35;12.10;99.90
1129;DHT22;553;51.038;7.216;2023-05-16T00:38:02;12.10;99.90
1129;DHT22;553;51.038;7.216;2023-05-16T00:40:28;12.10;99.90
1129;DHT22;553;51.038;7.216;2023-05-16T00:42:55;12.20;99.90
1129;DHT22;553;51.038;7.216;2023-05-16T00:45:22;12.20;99.90
1129;DHT22;553;51.038;7.216;2023-05-16T00:47:50;12.20;99.90
1129;DHT22;553;51.038;7.216;2023-05-16T00:50:17;12.10;99.90
1129;DHT22;553;51.038;7.216;2023-05-16T00:52:44;12.00;99.90
1129;DHT22;553;51.038;7.216;2023-05-16T00:55:13;12.00;99.90
1129;DHT22;553;51.038;7.216;2023-05-16T00:57:39;11.90;99.90
1129;DHT22;553;51.038;7.216;2023-05-16T01:00:08;12.00;99.90
1129;DHT22;553;51.038;7.216;2023-05-16T01:02:36;12.10;99.90
1129;DHT22;553;51.038;7.216;2023-05-16T01:05:03;12.10;99.90
1129;DHT22;553;51.038;7.216;2023-05-16T01:07:36;12.10;99.90
1129;DHT22;553;51.038;7.216;2023-05-16T01:10:06;12.10;99.90
1129;DHT22;553;51.038;7.216;2023-05-16T01:15:28;12.10;99.90
1129;DHT22;553;51.038;7.216;2023-05-16T01:18:10;12.10;99.90
1129;DHT22;553;51.038;7.216;2023-05-16T01:23:26;12.00;99.90
1129;DHT22;553;51.038;7.216;2023-05-16T01:26:19;12.00;99.90
1129;DHT22;553;51.038;7.216;2023-05-16T01:28:49;11.90;99.90
1129;DHT22;553;51.038;7.216;2023-05-16T01:31:17;11.90;99.90
1129;DHT22;553;51.038;7.216;2023-05-16T01:33:44;11.90;99.90
1129;DHT22;553;51.038;7.216;2023-05-16T01:36:29;11.80;99.90
1129;DHT22;553;51.038;7.216;2023-05-16T01:44:21;11.60;99.90
1129;DHT22;553;51.038;7.216;2023-05-16T01:46:52;11.60;99.90
1129;DHT22;553;51.038;7.216;2023-05-16T01:52:19;11.50;99.90
1129;DHT22;553;51.038;7.216;2023-05-16T01:54:52;11.40;99.90
1129;DHT22;553;51.038;7.216;2023-05-16T01:57:25;11.40;99.90
1129;DHT22;553;51.038;7.216;2023-05-16T01:59:52;11.40;99.90
1129;DHT22;553;51.038;7.216;2023-05-16T02:02:19;11.40;99.90
1129;DHT22;553;51.038;7.216;2023-05-16T02:04:46;11.40;99.90
1129;DHT22;553;51.038;7.216;2023-05-16T02:07:14;11.40;99.90
1129;DHT22;553;51.038;7.216;2023-05-16T02:09:43;11.40;99.90
1129;DHT22;553;51.038;7.216;2023-05-16T02:12:10;11.40;99.90
1129;DHT22;553;51.038;7.216;2023-05-16T02:14:37;11.30;99.90
1129;DHT22;553;51.038;7.216;2023-05-16T02:17:05;11.30;99.90
1129;DHT22;553;51.038;7.216;2023-05-16T02:19:31;11.20;99.90
1129;DHT22;553;51.038;7.216;2023-05-16T02:21:59;11.20;99.90
1129;DHT22;553;51.038;7.216;2023-05-16T02:24:26;11.10;99.90
1129;DHT22;553;51.038;7.216;2023-05-16T02:26:54;11.10;99.90
1129;DHT22;553;51.038;7.216;2023-05-16T02:29:21;11.00;99.90
1129;DHT22;553;51.038;7.216;2023-05-16T02:31:48;11.00;99.90
1129;DHT22;553;51.038;7.216;2023-05-16T02:34:14;11.00;99.90
1129;DHT22;553;51.038;7.216;2023-05-16T02:36:42;10.90;99.90
1129;DHT22;553;51.038;7.216;2023-05-16T02:39:08;10.80;99.90
1129;DHT22;553;51.038;7.216;2023-05-16T02:41:36;10.80;99.90
1129;DHT22;553;51.038;7.216;2023-05-16T02:44:02;10.70;99.90
1129;DHT22;553;51.038;7.216;2023-05-16T02:46:32;10.70;99.90
1129;DHT22;553;51.038;7.216;2023-05-16T02:48:59;10.60;99.90
1129;DHT22;553;51.038;7.216;2023-05-16T02:51:27;10.50;99.90
1129;DHT22;553;51.038;7.216;2023-05-16T02:53:54;10.50;99.90
1129;DHT22;553;51.038;7.216;2023-05-16T02:56:25;10.50;99.90
1129;DHT22;553;51.038;7.216;2023-05-16T02:58:52;10.30;99.90
1129;DHT22;553;51.038;7.216;2023-05-16T03:01:20;10.20;99.90
1129;DHT22;553;51.038;7.216;2023-05-16T03:03:46;10.10;99.90
1129;DHT22;553;51.038;7.216;2023-05-16T03:06:13;10.00;99.90
1129;DHT22;553;51.038;7.216;2023-05-16T03:08:40;9.90;99.90
1129;DHT22;553;51.038;7.216;2023-05-16T03:11:07;9.90;99.90
1129;DHT22;553;51.038;7.216;2023-05-16T03:13:33;9.80;99.90
1129;DHT22;553;51.038;7.216;2023-05-16T03:16:00;9.70;99.90
1129;DHT22;553;51.038;7.216;2023-05-16T03:18:27;9.70;99.90
1129;DHT22;553;51.038;7.216;2023-05-16T03:20:53;9.60;99.90
1129;DHT22;553;51.038;7.216;2023-05-16T03:23:22;9.60;99.90
1129;DHT22;553;51.038;7.216;2023-05-16T03:25:49;9.70;99.90
1129;DHT22;553;51.038;7.216;2023-05-16T03:28:19;9.70;99.90
1129;DHT22;553;51.038;7.216;2023-05-16T03:30:46;9.80;99.90
1129;DHT22;553;51.038;7.216;2023-05-16T03:33:13;9.80;99.90
1129;DHT22;553;51.038;7.216;2023-05-16T03:35:40;9.70;99.90
1129;DHT22;553;51.038;7.216;2023-05-16T03:38:06;9.70;99.90
1129;DHT22;553;51.038;7.216;2023-05-16T03:40:33;9.60;99.90
1129;DHT22;553;51.038;7.216;2023-05-16T03:43:00;9.60;99.90
1129;DHT22;553;51.038;7.216;2023-05-16T03:45:29;9.60;99.90
1129;DHT22;553;51.038;7.216;2023-05-16T03:47:56;9.60;99.90
1129;DHT22;553;51.038;7.216;2023-05-16T03:50:23;9.70;99.90
1129;DHT22;553;51.038;7.216;2023-05-16T03:52:51;9.70;99.90
1129;DHT22;553;51.038;7.216;2023-05-16T03:55:21;9.70;99.90
1129;DHT22;553;51.038;7.216;2023-05-16T03:57:47;9.70;99.90
1129;DHT22;553;51.038;7.216;2023-05-16T04:00:15;9.70;99.90
1129;DHT22;553;51.038;7.216;2023-05-16T04:02:42;9.70;99.90
1129;DHT22;553;51.038;7.216;2023-05-16T04:05:10;9.70;99.90
1129;DHT22;553;51.038;7.216;2023-05-16T04:07:38;9.80;99.90
1129;DHT22;553;51.038;7.216;2023-05-16T04:10:05;9.70;99.90
1129;DHT22;553;51.038;7.216;2023-05-16T04:12:31;9.70;99.90
1129;DHT22;553;51.038;7.216;2023-05-16T04:14:58;9.70;99.90
1129;DHT22;553;51.038;7.216;2023-05-16T04:17:25;9.70;99.90
1129;DHT22;553;51.038;7.216;2023-05-16T04:19:52;9.70;99.90
1129;DHT22;553;51.038;7.216;2023-05-16T04:22:20;9.70;99.90
1129;DHT22;553;51.038;7.216;2023-05-16T04:24:48;9.70;99.90
1129;DHT22;553;51.038;7.216;2023-05-16T04:27:15;9.60;99.90
1129;DHT22;553;51.038;7.216;2023-05-16T04:29:41;9.60;99.90
1129;DHT22;553;51.038;7.216;2023-05-16T04:32:08;9.50;99.90
1129;DHT22;553;51.038;7.216;2023-05-16T04:34:36;9.60;99.90
1129;DHT22;553;51.038;7.216;2023-05-16T04:37:06;9.50;99.90
1129;DHT22;553;51.038;7.216;2023-05-16T04:39:34;9.50;99.90
1129;DHT22;553;51.038;7.216;2023-05-16T04:42:01;9.50;99.90
1129;DHT22;553;51.038;7.216;2023-05-16T04:44:29;9.50;99.90
1129;DHT22;553;51.038;7.216;2023-05-16T04:46:56;9.50;99.90
1129;DHT22;553;51.038;7.216;2023-05-16T04:49:23;9.50;99.90
1129;DHT22;553;51.038;7.216;2023-05-16T04:51:50;9.50;99.90
1129;DHT22;553;51.038;7.216;2023-05-16T04:54:16;9.60;99.90
1129;DHT22;553;51.038;7.216;2023-05-16T04:56:43;9.50;99.90
1129;DHT22;553;51.038;7.216;2023-05-16T04:59:10;9.50;99.90
1129;DHT22;553;51.038;7.216;2023-05-16T05:01:36;9.50;99.90
1129;DHT22;553;51.038;7.216;2023-05-16T05:04:03;9.40;99.90
1129;DHT22;553;51.038;7.216;2023-05-16T05:06:30;9.40;99.90
1129;DHT22;553;51.038;7.216;2023-05-16T05:08:57;9.40;99.90
1129;DHT22;553;51.038;7.216;2023-05-16T05:11:23;9.30;99.90
1129;DHT22;553;51.038;7.216;2023-05-16T05:13:50;9.40;99.90
1129;DHT22;553;51.038;7.216;2023-05-16T05:16:18;9.30;99.90
1129;DHT22;553;51.038;7.216;2023-05-16T05:18:45;9.30;99.90
1129;DHT22;553;51.038;7.216;2023-05-16T05:21:12;9.40;99.90
1129;DHT22;553;51.038;7.216;2023-05-16T05:23:39;9.40;99.90
1129;DHT22;553;51.038;7.216;2023-05-16T05:26:06;9.30;99.90
1129;DHT22;553;51.038;7.216;2023-05-16T05:28:32;9.20;99.90
1129;DHT22;553;51.038;7.216;2023-05-16T05:30:59;9.10;99.90
1129;DHT22;553;51.038;7.216;2023-05-16T05:33:26;9.00;99.90
1129;DHT22;553;51.038;7.216;2023-05-16T05:35:54;9.00;99.90
1129;DHT22;553;51.038;7.216;2023-05-16T05:38:21;9.00;99.90
1129;DHT22;553;51.038;7.216;2023-05-16T05:40:48;9.00;99.90
1129;DHT22;553;51.038;7.216;2023-05-16T05:43:15;9.00;99.90
1129;DHT22;553;51.038;7.216;2023-05-16T05:45:42;9.00;99.90
1129;DHT22;553;51.038;7.216;2023-05-16T05:48:09;9.00;99.90
1129;DHT22;553;51.038;7.216;2023-05-16T05:50:36;9.10;99.90
1129;DHT22;553;51.038;7.216;2023-05-16T05:53:03;9.10;99.90
1129;DHT22;553;51.038;7.216;2023-05-16T05:55:30;9.10;99.90
1129;DHT22;553;51.038;7.216;2023-05-16T05:57:56;9.30;99.90
1129;DHT22;553;51.038;7.216;2023-05-16T06:00:23;9.70;99.90
1129;DHT22;553;51.038;7.216;2023-05-16T06:02:50;9.90;99.90
1129;DHT22;553;51.038;7.216;2023-05-16T06:05:17;10.10;99.90
1129;DHT22;553;51.038;7.216;2023-05-16T06:07:44;10.30;99.90
1129;DHT22;553;51.038;7.216;2023-05-16T06:10:10;10.50;99.90
1129;DHT22;553;51.038;7.216;2023-05-16T06:12:37;10.40;99.90
1129;DHT22;553;51.038;7.216;2023-05-16T06:15:04;10.40;99.90
1129;DHT22;553;51.038;7.216;2023-05-16T06:17:31;10.40;99.90
1129;DHT22;553;51.038;7.216;2023-05-16T06:19:57;10.20;99.90
1129;DHT22;553;51.038;7.216;2023-05-16T06:22:24;10.10;99.90
1129;DHT22;553;51.038;7.216;2023-05-16T06:24:51;10.00;99.90
1129;DHT22;553;51.038;7.216;2023-05-16T06:27:17;9.90;99.90
1129;DHT22;553;51.038;7.216;2023-05-16T06:29:44;9.70;99.90
1129;DHT22;553;51.038;7.216;2023-05-16T06:32:11;9.80;99.90
1129;DHT22;553;51.038;7.216;2023-05-16T06:34:39;10.10;99.90
1129;DHT22;553;51.038;7.216;2023-05-16T06:37:05;10.50;99.90
1129;DHT22;553;51.038;7.216;2023-05-16T06:39:32;10.60;99.90
1129;DHT22;553;51.038;7.216;2023-05-16T06:41:59;10.70;99.90
1129;DHT22;553;51.038;7.216;2023-05-16T06:44:30;10.80;99.90
1129;DHT22;553;51.038;7.216;2023-05-16T06:46:57;11.10;99.90
1129;DHT22;553;51.038;7.216;2023-05-16T06:49:24;11.10;99.90
1129;DHT22;553;51.038;7.216;2023-05-16T06:51:51;11.10;99.90
1129;DHT22;553;51.038;7.216;2023-05-16T06:54:18;11.00;99.90
1129;DHT22;553;51.038;7.216;2023-05-16T06:56:44;11.10;99.90
1129;DHT22;553;51.038;7.216;2023-05-16T06:59:11;11.00;99.60
1129;DHT22;553;51.038;7.216;2023-05-16T07:01:38;11.00;99.90
1129;DHT22;553;51.038;7.216;2023-05-16T07:04:05;10.80;99.80
1129;DHT22;553;51.038;7.216;2023-05-16T07:06:32;10.70;99.90
1129;DHT22;553;51.038;7.216;2023-05-16T07:08:59;12.00;99.90
1129;DHT22;553;51.038;7.216;2023-05-16T07:11:26;12.10;95.30
1129;DHT22;553;51.038;7.216;2023-05-16T07:13:52;12.20;96.50
1129;DHT22;553;51.038;7.216;2023-05-16T07:16:19;12.30;94.90
1129;DHT22;553;51.038;7.216;2023-05-16T07:18:46;12.20;94.40
1129;DHT22;553;51.038;7.216;2023-05-16T07:21:13;12.90;96.30
1129;DHT22;553;51.038;7.216;2023-05-16T07:23:39;12.80;90.40
1129;DHT22;553;51.038;7.216;2023-05-16T07:26:07;12.50;92.40
1129;DHT22;553;51.038;7.216;2023-05-16T07:28:33;12.40;93.30
1129;DHT22;553;51.038;7.216;2023-05-16T07:31:00;12.50;91.90
1129;DHT22;553;51.038;7.216;2023-05-16T07:33:27;12.30;91.80
1129;DHT22;553;51.038;7.216;2023-05-16T07:35:53;12.10;91.70
1129;DHT22;553;51.038;7.216;2023-05-16T07:38:40;12.30;90.80
1129;DHT22;553;51.038;7.216;2023-05-16T07:41:07;12.40;90.40
1129;DHT22;553;51.038;7.216;2023-05-16T07:43:34;12.40;90.00
1129;DHT22;553;51.038;7.216;2023-05-16T07:46:02;12.40;90.20
1129;DHT22;553;51.038;7.216;2023-05-16T07:48:29;12.40;90.20
1129;DHT22;553;51.038;7.216;2023-05-16T07:50:56;12.70;89.00
1129;DHT22;553;51.038;7.216;2023-05-16T07:53:23;13.10;89.80
1129;DHT22;553;51.038;7.216;2023-05-16T07:55:50;13.50;88.40
1129;DHT22;553;51.038;7.216;2023-05-16T07:58:18;13.90;87.90
1129;DHT22;553;51.038;7.216;2023-05-16T08:00:45;14.20;84.70
1129;DHT22;553;51.038;7.216;2023-05-16T08:03:12;14.00;84.90
1129;DHT22;553;51.038;7.216;2023-05-16T08:05:39;13.90;87.10
1129;DHT22;553;51.038;7.216;2023-05-16T08:08:06;13.80;84.90
1129;DHT22;553;51.038;7.216;2023-05-16T08:10:33;13.50;83.90
1129;DHT22;553;51.038;7.216;2023-05-16T08:12:59;12.90;85.30
1129;DHT22;553;51.038;7.216;2023-05-16T08:15:26;12.70;87.10
1129;DHT22;553;51.038;7.216;2023-05-16T08:17:57;12.50;88.30
1129;DHT22;553;51.038;7.216;2023-05-16T08:20:25;12.50;88.60
1129;DHT22;553;51.038;7.216;2023-05-16T08:22:52;12.50;86.60
1129;DHT22;553;51.038;7.216;2023-05-16T08:25:19;12.40;87.30
1129;DHT22;553;51.038;7.216;2023-05-16T08:27:48;12.40;87.70
1129;DHT22;553;51.038;7.216;2023-05-16T08:30:15;12.60;86.70
1129;DHT22;553;51.038;7.216;2023-05-16T08:32:41;12.60;85.60
1129;DHT22;553;51.038;7.216;2023-05-16T08:35:09;12.90;86.70
1129;DHT22;553;51.038;7.216;2023-05-16T08:37:36;13.40;84.80
1129;DHT22;553;51.038;7.216;2023-05-16T08:40:06;13.80;82.70
1129;DHT22;553;51.038;7.216;2023-05-16T08:42:35;13.80;82.20
1129;DHT22;553;51.038;7.216;2023-05-16T08:45:02;14.10;81.40
1129;DHT22;553;51.038;7.216;2023-05-16T08:47:31;14.50;83.00
1129;DHT22;553;51.038;7.216;2023-05-16T08:49:59;14.70;80.40
1129;DHT22;553;51.038;7.216;2023-05-16T08:52:30;14.80;78.70
1129;DHT22;553;51.038;7.216;2023-05-16T08:55:01;15.00;77.20
1129;DHT22;553;51.038;7.216;2023-05-16T08:57:37;15.20;76.10
1129;DHT22;553;51.038;7.216;2023-05-16T09:00:06;14.90;72.90
1129;DHT22;553;51.038;7.216;2023-05-16T09:02:38;14.80;75.70
1129;DHT22;553;51.038;7.216;2023-05-16T09:05:09;14.80;77.30
1129;DHT22;553;51.038;7.216;2023-05-16T09:07:36;14.90;75.80
1129;DHT22;553;51.038;7.216;2023-05-16T09:10:05;15.10;78.30
1129;DHT22;553;51.038;7.216;2023-05-16T09:12:33;15.20;78.80
1129;DHT22;553;51.038;7.216;2023-05-16T09:15:04;15.30;81.20
1129;DHT22;553;51.038;7.216;2023-05-16T09:17:49;15.00;79.10
1129;DHT22;553;51.038;7.216;2023-05-16T09:20:19;14.70;79.30
1129;DHT22;553;51.038;7.216;2023-05-16T09:22:57;14.40;79.60
1129;DHT22;553;51.038;7.216;2023-05-16T09:25:26;14.40;80.00
1129;DHT22;553;51.038;7.216;2023-05-16T09:27:59;14.70;80.60
1129;DHT22;553;51.038;7.216;2023-05-16T09:30:29;15.00;77.30
1129;DHT22;553;51.038;7.216;2023-05-16T09:32:57;15.10;75.50
1129;DHT22;553;51.038;7.216;2023-05-16T09:35:25;14.90;77.10
1129;DHT22;553;51.038;7.216;2023-05-16T09:37:55;14.90;76.70
1129;DHT22;553;51.038;7.216;2023-05-16T09:40:22;14.80;75.30
1129;DHT22;553;51.038;7.216;2023-05-16T09:43:05;14.90;76.90
1129;DHT22;553;51.038;7.216;2023-05-16T09:45:33;15.20;76.60
1129;DHT22;553;51.038;7.216;2023-05-16T09:48:03;15.40;75.30
1129;DHT22;553;51.038;7.216;2023-05-16T09:50:35;15.50;73.30
1129;DHT22;553;51.038;7.216;2023-05-16T09:53:03;15.50;74.20
1129;DHT22;553;51.038;7.216;2023-05-16T09:55:30;15.30;74.10
1129;DHT22;553;51.038;7.216;2023-05-16T09:57:57;15.10;75.80
1129;DHT22;553;51.038;7.216;2023-05-16T10:00:29;14.90;74.10
1129;DHT22;553;51.038;7.216;2023-05-16T10:02:57;14.90;74.80
1129;DHT22;553;51.038;7.216;2023-05-16T10:05:29;15.00;75.00
1129;DHT22;553;51.038;7.216;2023-05-16T10:07:57;15.30;75.40
1129;DHT22;553;51.038;7.216;2023-05-16T10:10:24;15.50;75.20
1129;DHT22;553;51.038;7.216;2023-05-16T10:12:52;15.40;74.50
1129;DHT22;553;51.038;7.216;2023-05-16T10:15:21;15.30;75.10
1129;DHT22;553;51.038;7.216;2023-05-16T10:17:50;15.30;75.10
1129;DHT22;553;51.038;7.216;2023-05-16T10:20:19;15.20;75.40
1129;DHT22;553;51.038;7.216;2023-05-16T10:22:48;15.00;74.20
1129;DHT22;553;51.038;7.216;2023-05-16T10:25:33;14.80;75.70
1129;DHT22;553;51.038;7.216;2023-05-16T10:28:02;14.60;74.30
1129;DHT22;553;51.038;7.216;2023-05-16T10:30:32;14.50;76.10
1129;DHT22;553;51.038;7.216;2023-05-16T10:33:00;14.70;76.50
1129;DHT22;553;51.038;7.216;2023-05-16T10:35:27;14.90;74.00
1129;DHT22;553;51.038;7.216;2023-05-16T10:37:54;15.20;73.50
1129;DHT22;553;51.038;7.216;2023-05-16T10:40:22;15.00;74.30
1129;DHT22;553;51.038;7.216;2023-05-16T10:43:03;14.90;75.30
1129;DHT22;553;51.038;7.216;2023-05-16T10:45:31;14.80;76.80
1129;DHT22;553;51.038;7.216;2023-05-16T10:48:01;14.90;76.10
1129;DHT22;553;51.038;7.216;2023-05-16T10:50:47;14.90;74.60
1129;DHT22;553;51.038;7.216;2023-05-16T10:53:19;15.00;76.90
1129;DHT22;553;51.038;7.216;2023-05-16T10:58:24;15.10;73.30
1129;DHT22;553;51.038;7.216;2023-05-16T11:01:14;15.00;73.70
1129;DHT22;553;51.038;7.216;2023-05-16T11:06:26;15.30;73.90
1129;DHT22;553;51.038;7.216;2023-05-16T11:11:56;15.50;71.20
1129;DHT22;553;51.038;7.216;2023-05-16T11:19:50;15.20;72.40
1129;DHT22;553;51.038;7.216;2023-05-16T11:22:37;15.10;71.10
1129;DHT22;553;51.038;7.216;2023-05-16T11:25:09;15.20;72.90
1129;DHT22;553;51.038;7.216;2023-05-16T11:27:46;15.20;72.00
1129;DHT22;553;51.038;7.216;2023-05-16T11:30:15;15.30;73.30
1129;DHT22;553;51.038;7.216;2023-05-16T11:32:44;15.30;71.40
1129;DHT22;553;51.038;7.216;2023-05-16T11:35:14;15.10;72.20
1129;DHT22;553;51.038;7.216;2023-05-16T11:37:42;15.10;72.80
1129;DHT22;553;51.038;7.216;2023-05-16T11:40:11;15.10;73.60
1129;DHT22;553;51.038;7.216;2023-05-16T11:42:44;15.10;74.30
1129;DHT22;553;51.038;7.216;2023-05-16T11:45:15;15.20;73.50
1129;DHT22;553;51.038;7.216;2023-05-16T11:47:43;15.10;73.00
1129;DHT22;553;51.038;7.216;2023-05-16T11:50:14;15.00;74.10
1129;DHT22;553;51.038;7.216;2023-05-16T11:52:44;15.00;74.30
1129;DHT22;553;51.038;7.216;2023-05-16T11:55:11;15.10;76.30
1129;DHT22;553;51.038;7.216;2023-05-16T11:57:42;15.30;75.30
1129;DHT22;553;51.038;7.216;2023-05-16T12:00:14;15.50;74.30
1129;DHT22;553;51.038;7.216;2023-05-16T12:02:43;15.70;73.90
1129;DHT22;553;51.038;7.216;2023-05-16T12:05:10;15.70;73.40
1129;DHT22;553;51.038;7.216;2023-05-16T12:07:37;15.80;74.60
1129;DHT22;553;51.038;7.216;2023-05-16T12:10:09;15.90;73.80
1129;DHT22;553;51.038;7.216;2023-05-16T12:12:38;15.80;73.90
1129;DHT22;553;51.038;7.216;2023-05-16T12:15:07;15.80;74.00
1129;DHT22;553;51.038;7.216;2023-05-16T12:17:38;15.90;74.40
1129;DHT22;553;51.038;7.216;2023-05-16T12:20:08;15.80;73.80
1129;DHT22;553;51.038;7.216;2023-05-16T12:22:40;15.90;73.40
1129;DHT22;553;51.038;7.216;2023-05-16T12:25:29;15.90;73.90
1129;DHT22;553;51.038;7.216;2023-05-16T12:27:59;15.90;75.10
1129;DHT22;553;51.038;7.216;2023-05-16T12:30:28;15.90;75.20
1129;DHT22;553;51.038;7.216;2023-05-16T12:32:57;16.00;74.60
1129;DHT22;553;51.038;7.216;2023-05-16T12:35:31;15.90;75.20
1129;DHT22;553;51.038;7.216;2023-05-16T12:37:59;15.90;75.40
1129;DHT22;553;51.038;7.216;2023-05-16T12:40:29;16.00;76.20
1129;DHT22;553;51.038;7.216;2023-05-16T12:42:57;16.10;75.10
1129;DHT22;553;51.038;7.216;2023-05-16T12:45:25;16.20;73.40
1129;DHT22;553;51.038;7.216;2023-05-16T12:47:52;16.20;73.30
1129;DHT22;553;51.038;7.216;2023-05-16T12:50:19;16.10;71.70
1129;DHT22;553;51.038;7.216;2023-05-16T12:52:53;15.80;71.90
1129;DHT22;553;51.038;7.216;2023-05-16T12:55:21;15.60;73.10
1129;DHT22;553;51.038;7.216;2023-05-16T12:57:49;15.60;75.10
1129;DHT22;553;51.038;7.216;2023-05-16T13:00:18;15.70;75.80
1129;DHT22;553;51.038;7.216;2023-05-16T13:02:45;15.80;75.60
1129;DHT22;553;51.038;7.216;2023-05-16T13:05:13;15.70;75.20
1129;DHT22;553;51.038;7.216;2023-05-16T13:07:40;15.60;75.70
1129;DHT22;553;51.038;7.216;2023-05-16T13:10:08;15.60;76.10
1129;DHT22;553;51.038;7.216;2023-05-16T13:12:39;15.70;76.70
1129;DHT22;553;51.038;7.216;2023-05-16T13:15:07;15.70;75.70
1129;DHT22;553;51.038;7.216;2023-05-16T13:17:35;15.70;77.70
1129;DHT22;553;51.038;7.216;2023-05-16T13:20:03;15.80;76.60
1129;DHT22;553;51.038;7.216;2023-05-16T13:22:37;15.90;75.90
1129;DHT22;553;51.038;7.216;2023-05-16T13:25:04;15.80;74.90
1129;DHT22;553;51.038;7.216;2023-05-16T13:27:32;15.70;75.50
1129;DHT22;553;51.038;7.216;2023-05-16T13:29:59;15.80;75.10
1129;DHT22;553;51.038;7.216;2023-05-16T13:32:26;15.80;77.40
1129;DHT22;553;51.038;7.216;2023-05-16T13:34:53;15.90;75.80
1129;DHT22;553;51.038;7.216;2023-05-16T13:37:20;16.00;73.40
1129;DHT22;553;51.038;7.216;2023-05-16T13:39:49;16.10;74.60
1129;DHT22;553;51.038;7.216;2023-05-16T13:42:16;16.20;74.40
1129;DHT22;553;51.038;7.216;2023-05-16T13:44:43;16.20;70.70
1129;DHT22;553;51.038;7.216;2023-05-16T13:47:10;16.40;72.80
1129;DHT22;553;51.038;7.216;2023-05-16T13:49:37;16.60;70.40
1129;DHT22;553;51.038;7.216;2023-05-16T13:52:05;16.40;70.00
1129;DHT22;553;51.038;7.216;2023-05-16T13:54:31;16.20;70.30
1129;DHT22;553;51.038;7.216;2023-05-16T13:56:59;16.10;69.00
1129;DHT22;553;51.038;7.216;2023-05-16T13:59:27;16.10;69.80
1129;DHT22;553;51.038;7.216;2023-05-16T14:02:13;16.00;70.30
1129;DHT22;553;51.038;7.216;2023-05-16T14:04:40;16.10;70.20
1129;DHT22;553;51.038;7.216;2023-05-16T14:07:07;16.00;70.90
1129;DHT22;553;51.038;7.216;2023-05-16T14:09:34;15.90;70.90
1129;DHT22;553;51.038;7.216;2023-05-16T14:12:05;15.80;71.70
1129;DHT22;553;51.038;7.216;2023-05-16T14:14:35;15.60;72.40
1129;DHT22;553;51.038;7.216;2023-05-16T14:17:02;15.60;72.30
1129;DHT22;553;51.038;7.216;2023-05-16T14:19:30;15.70;72.70
1129;DHT22;553;51.038;7.216;2023-05-16T14:21:57;15.80;74.20
1129;DHT22;553;51.038;7.216;2023-05-16T14:24:23;15.90;71.40
1129;DHT22;553;51.038;7.216;2023-05-16T14:26:50;16.10;72.50
1129;DHT22;553;51.038;7.216;2023-05-16T14:29:23;16.20;70.50
1129;DHT22;553;51.038;7.216;2023-05-16T14:31:50;16.30;70.50
1129;DHT22;553;51.038;7.216;2023-05-16T14:34:17;16.40;70.20
1129;DHT22;553;51.038;7.216;2023-05-16T14:36:44;16.60;69.40
1129;DHT22;553;51.038;7.216;2023-05-16T14:39:11;16.50;69.80
1129;DHT22;553;51.038;7.216;2023-05-16T14:41:37;16.60;68.70
1129;DHT22;553;51.038;7.216;2023-05-16T14:44:04;16.50;69.60
1129;DHT22;553;51.038;7.216;2023-05-16T14:46:31;16.50;69.90
1129;DHT22;553;51.038;7.216;2023-05-16T14:48:59;16.60;69.90
1129;DHT22;553;51.038;7.216;2023-05-16T14:51:26;16.50;68.10
1129;DHT22;553;51.038;7.216;2023-05-16T14:53:52;16.30;68.20
1129;DHT22;553;51.038;7.216;2023-05-16T14:56:19;16.20;69.20
1129;DHT22;553;51.038;7.216;2023-05-16T14:58:47;16.30;68.80
1129;DHT22;553;51.038;7.216;2023-05-16T15:01:14;16.30;69.10
1129;DHT22;553;51.038;7.216;2023-05-16T15:03:42;16.40;69.40
1129;DHT22;553;51.038;7.216;2023-05-16T15:06:22;16.50;68.30
1129;DHT22;553;51.038;7.216;2023-05-16T15:08:49;16.50;70.20
1129;DHT22;553;51.038;7.216;2023-05-16T15:11:16;16.50;69.30
1129;DHT22;553;51.038;7.216;2023-05-16T15:13:42;16.40;70.40
1129;DHT22;553;51.038;7.216;2023-05-16T15:16:10;16.40;70.00
1129;DHT22;553;51.038;7.216;2023-05-16T15:18:37;16.20;69.60
1129;DHT22;553;51.038;7.216;2023-05-16T15:21:04;16.30;69.30
1129;DHT22;553;51.038;7.216;2023-05-16T15:23:31;16.10;70.20
1129;DHT22;553;51.038;7.216;2023-05-16T15:25:58;16.20;73.80
1129;DHT22;553;51.038;7.216;2023-05-16T15:28:25;16.10;69.90
1129;DHT22;553;51.038;7.216;2023-05-16T15:30:51;15.80;70.10
1129;DHT22;553;51.038;7.216;2023-05-16T15:33:18;15.70;71.00
1129;DHT22;553;51.038;7.216;2023-05-16T15:35:45;15.70;72.20
1129;DHT22;553;51.038;7.216;2023-05-16T15:38:11;15.70;72.40
1129;DHT22;553;51.038;7.216;2023-05-16T15:40:38;15.60;73.00
1129;DHT22;553;51.038;7.216;2023-05-16T15:43:05;15.40;72.10
1129;DHT22;553;51.038;7.216;2023-05-16T15:45:32;15.30;71.90
1129;DHT22;553;51.038;7.216;2023-05-16T15:47:59;15.30;72.70
1129;DHT22;553;51.038;7.216;2023-05-16T15:50:27;15.20;73.10
1129;DHT22;553;51.038;7.216;2023-05-16T15:52:54;15.20;73.60
1129;DHT22;553;51.038;7.216;2023-05-16T15:55:23;15.30;73.90
1129;DHT22;553;51.038;7.216;2023-05-16T15:57:50;15.30;72.70
1129;DHT22;553;51.038;7.216;2023-05-16T16:00:17;15.30;73.30
1129;DHT22;553;51.038;7.216;2023-05-16T16:02:43;15.20;73.60
1129;DHT22;553;51.038;7.216;2023-05-16T16:05:11;15.20;73.70
1129;DHT22;553;51.038;7.216;2023-05-16T16:07:38;15.10;73.10
1129;DHT22;553;51.038;7.216;2023-05-16T16:10:06;15.10;73.20
1129;DHT22;553;51.038;7.216;2023-05-16T16:12:32;15.00;73.70
1129;DHT22;553;51.038;7.216;2023-05-16T16:14:59;14.90;74.10
1129;DHT22;553;51.038;7.216;2023-05-16T16:17:27;14.90;74.60
1129;DHT22;553;51.038;7.216;2023-05-16T16:19:54;14.80;75.00
1129;DHT22;553;51.038;7.216;2023-05-16T16:22:21;14.80;76.00
1129;DHT22;553;51.038;7.216;2023-05-16T16:24:48;14.70;76.10
1129;DHT22;553;51.038;7.216;2023-05-16T16:27:15;14.70;77.50
1129;DHT22;553;51.038;7.216;2023-05-16T16:29:42;14.70;77.30
1129;DHT22;553;51.038;7.216;2023-05-16T16:32:08;14.60;77.10
1129;DHT22;553;51.038;7.216;2023-05-16T16:34:35;14.50;77.60
1129;DHT22;553;51.038;7.216;2023-05-16T16:37:02;14.50;77.90
1129;DHT22;553;51.038;7.216;2023-05-16T16:39:29;14.50;77.90
1129;DHT22;553;51.038;7.216;2023-05-16T16:41:58;14.50;77.40
1129;DHT22;553;51.038;7.216;2023-05-16T16:44:25;14.50;77.50
1129;DHT22;553;51.038;7.216;2023-05-16T16:46:52;14.50;77.90
1129;DHT22;553;51.038;7.216;2023-05-16T16:49:18;14.40;78.40
1129;DHT22;553;51.038;7.216;2023-05-16T16:51:45;14.40;78.30
1129;DHT22;553;51.038;7.216;2023-05-16T16:54:13;14.40;78.90
1129;DHT22;553;51.038;7.216;2023-05-16T16:56:39;14.40;77.60